Time;durP1;ratioP1;P1;durP2;ratioP2;P2;SDS_P1;SDS_P2;PMS_P1;PMS_P2;Temp;Humidity;BMP_temperature;BMP_pressure;BME280_temperature;BME280_humidity;BME280_pressure;Samples;Min_cycle;Max_cycle;Signal;HPM_P1;HPM_P2
2024/03/26 00:02:21;;;;;;;5.33;2.73;;;8.90;1.00;;;;;;5077604;28;20207;-43
2024/03/26 00:04:47;;;;;;;2.60;2.40;;;8.80;1.00;;;;;;5080839;28;20254;-41
2024/03/26 00:07:12;;;;;;;2.57;2.17;;;8.80;1.00;;;;;;5063580;28;20881;-42
2024/03/26 00:09:38;;;;;;;3.93;2.30;;;8.80;1.00;;;;;;5080777;28;20220;-40
2024/03/26 00:12:04;;;;;;;3.67;2.50;;;8.70;1.00;;;;;;5079618;28;20570;-41
2024/03/26 00:14:46;;;;;;;4.13;2.83;;;8.70;1.00;;;;;;5077876;28;20252;-42
2024/03/26 00:17:13;;;;;;;2.93;2.40;;;8.70;1.00;;;;;;5079289;28;20462;-43
2024/03/26 00:19:38;;;;;;;3.53;3.00;;;8.70;1.00;;;;;;5061748;28;20414;-41
2024/03/26 00:22:04;;;;;;;4.00;3.10;;;8.70;1.00;;;;;;5079916;28;20920;-41
2024/03/26 00:24:30;;;;;;;3.70;2.87;;;8.60;1.00;;;;;;5078152;28;20560;-41
2024/03/26 00:26:55;;;;;;;3.37;2.93;;;8.60;1.00;;;;;;5077999;28;20479;-41
2024/03/26 00:29:21;;;;;;;3.60;2.43;;;8.50;1.00;;;;;;5078696;28;20185;-41
2024/03/26 00:31:47;;;;;;;6.50;3.10;;;8.50;1.00;;;;;;5080757;28;20177;-41
2024/03/26 00:34:12;;;;;;;3.20;2.40;;;8.40;1.00;;;;;;5063594;28;20485;-40
2024/03/26 00:36:38;;;;;;;2.83;2.40;;;8.40;1.00;;;;;;5080151;28;20272;-41
2024/03/26 00:39:05;;;;;;;3.07;2.73;;;8.40;1.00;;;;;;5062634;28;20460;-40
2024/03/26 00:41:30;;;;;;;2.63;2.20;;;8.40;1.00;;;;;;5062957;28;20180;-42
2024/03/26 00:43:56;;;;;;;3.20;2.57;;;8.30;1.00;;;;;;5080876;28;20765;-41
2024/03/26 00:46:22;;;;;;;3.53;3.07;;;8.30;1.00;;;;;;5046594;28;20185;-41
2024/03/26 00:48:47;;;;;;;2.90;2.60;;;8.30;1.00;;;;;;5080707;28;20192;-41
2024/03/26 00:51:13;;;;;;;3.20;2.63;;;8.30;1.00;;;;;;5080868;28;20185;-43
2024/03/26 00:53:38;;;;;;;4.63;2.67;;;8.30;1.00;;;;;;5080488;28;20236;-41
2024/03/26 00:56:05;;;;;;;3.57;2.40;;;8.20;1.00;;;;;;5080340;28;20254;-42
2024/03/26 00:58:31;;;;;;;3.30;2.40;;;8.20;1.00;;;;;;5080603;28;20169;-43
2024/03/26 01:00:56;;;;;;;4.30;2.20;;;8.20;1.00;;;;;;5080436;28;20430;-42
2024/03/26 01:03:22;;;;;;;2.90;2.40;;;8.20;1.00;;;;;;5080799;28;20196;-42
2024/03/26 01:05:54;;;;;;;3.07;2.23;;;8.10;1.00;;;;;;5080467;28;20204;-41
2024/03/26 01:08:20;;;;;;;5.77;2.83;;;8.10;1.00;;;;;;5080841;28;20211;-42
2024/03/26 01:10:48;;;;;;;2.90;2.07;;;8.10;1.00;;;;;;5062950;28;20431;-43
2024/03/26 01:13:15;;;;;;;3.30;2.80;;;8.10;1.00;;;;;;5080158;28;20177;-42
2024/03/26 01:15:41;;;;;;;4.27;2.50;;;8.00;1.00;;;;;;5078883;28;20428;-43
2024/03/26 01:18:06;;;;;;;5.67;2.10;;;8.00;1.00;;;;;;5078508;28;20500;-42
2024/03/26 01:20:32;;;;;;;2.37;2.17;;;8.00;1.00;;;;;;5061359;28;20514;-42
2024/03/26 01:22:58;;;;;;;4.37;2.80;;;8.00;1.00;;;;;;5078433;28;20173;-44
2024/03/26 01:25:24;;;;;;;3.33;2.57;;;7.90;1.00;;;;;;5078702;28;20184;-41
2024/03/26 01:27:52;;;;;;;4.30;2.30;;;7.90;1.00;;;;;;5079088;28;20192;-42
2024/03/26 01:30:18;;;;;;;2.90;2.37;;;7.90;1.00;;;;;;5079477;28;20225;-44
2024/03/26 01:32:43;;;;;;;4.10;2.63;;;7.80;1.00;;;;;;5062666;28;20798;-41
2024/03/26 01:35:09;;;;;;;3.57;3.10;;;7.80;1.00;;;;;;5079840;28;20228;-41
2024/03/26 01:37:35;;;;;;;2.77;2.20;;;7.70;1.00;;;;;;5079199;28;20180;-41
2024/03/26 01:40:00;;;;;;;2.50;2.10;;;7.70;1.00;;;;;;5079612;28;20267;-41
2024/03/26 01:42:26;;;;;;;3.50;2.70;;;7.60;1.00;;;;;;5079930;28;20192;-41
2024/03/26 01:44:51;;;;;;;3.23;2.50;;;7.60;1.00;;;;;;5079424;28;20225;-41
2024/03/26 01:47:17;;;;;;;3.70;2.73;;;7.60;1.00;;;;;;5079751;28;20188;-43
2024/03/26 01:49:43;;;;;;;3.47;2.90;;;7.50;1.00;;;;;;5078950;28;20550;-42
2024/03/26 01:52:09;;;;;;;4.40;3.10;;;7.50;1.00;;;;;;5062014;28;20192;-40
2024/03/26 01:54:34;;;;;;;3.97;3.10;;;7.50;1.00;;;;;;5078413;28;20467;-42
2024/03/26 01:57:00;;;;;;;4.43;2.53;;;7.50;1.00;;;;;;5060949;28;20598;-41
2024/03/26 01:59:26;;;;;;;5.10;3.40;;;7.40;1.00;;;;;;5079451;28;20230;-41
2024/03/26 02:01:52;;;;;;;2.43;1.17;;;7.40;1.00;;;;;;5078057;28;20178;-44
2024/03/26 02:04:17;;;;;;;1.97;1.10;;;7.60;1.00;;;;;;5079499;28;20415;-45
2024/03/26 02:06:43;;;;;;;2.40;1.03;;;8.60;1.00;;;;;;5078923;28;20181;-40
2024/03/26 02:09:09;;;;;;;3.23;2.30;;;9.50;99.90;;;;;;5079389;28;20526;-41
2024/03/26 02:11:34;;;;;;;2.83;2.53;;;10.10;99.90;;;;;;5062179;28;20192;-43
2024/03/26 02:14:00;;;;;;;3.67;2.60;;;10.20;1.00;;;;;;5078885;28;20248;-41
2024/03/26 02:16:25;;;;;;;3.73;2.80;;;10.00;99.90;;;;;;5079343;28;20268;-41
2024/03/26 02:18:51;;;;;;;4.50;3.27;;;9.80;99.90;;;;;;5044678;28;20560;-42
2024/03/26 02:21:17;;;;;;;4.50;2.83;;;9.50;1.00;;;;;;5061852;28;20254;-41
2024/03/26 02:23:43;;;;;;;4.30;3.27;;;9.20;1.00;;;;;;5079054;28;20246;-41
2024/03/26 02:26:18;;;;;;;4.77;3.53;;;8.90;1.00;;;;;;5078401;28;20503;-42
2024/03/26 02:28:44;;;;;;;3.83;3.00;;;8.70;1.00;;;;;;5061221;28;20708;-43
2024/03/26 02:31:09;;;;;;;5.10;3.10;;;8.50;1.00;;;;;;5079006;28;20502;-41
2024/03/26 02:33:35;;;;;;;3.13;2.53;;;8.30;1.00;;;;;;5061246;28;20220;-41
2024/03/26 02:36:01;;;;;;;2.70;2.50;;;8.10;1.00;;;;;;5079217;28;20219;-42
2024/03/26 02:38:26;;;;;;;3.83;2.63;;;8.00;1.00;;;;;;5078527;28;20240;-42
2024/03/26 02:40:52;;;;;;;3.77;2.30;;;7.90;1.00;;;;;;5061540;28;20177;-42
2024/03/26 02:43:18;;;;;;;3.10;2.33;;;7.80;1.00;;;;;;5057975;28;20303;-42
2024/03/26 02:45:43;;;;;;;4.80;2.47;;;7.80;1.00;;;;;;5057884;28;20192;-41
2024/03/26 02:48:09;;;;;;;3.83;2.60;;;7.70;1.00;;;;;;5058173;28;20514;-43
2024/03/26 02:50:35;;;;;;;3.80;2.60;;;7.60;1.00;;;;;;5058572;28;20192;-43
2024/03/26 02:53:00;;;;;;;3.70;2.53;;;7.60;1.00;;;;;;5058204;28;20255;-41
2024/03/26 02:55:26;;;;;;;4.10;2.70;;;7.60;1.00;;;;;;5058144;28;20209;-42
2024/03/26 02:57:51;;;;;;;2.73;2.30;;;7.50;1.00;;;;;;5058048;28;20209;-43
2024/03/26 03:00:18;;;;;;;3.80;3.00;;;7.50;1.00;;;;;;5058535;28;20263;-41
2024/03/26 03:02:44;;;;;;;3.50;2.80;;;7.40;1.00;;;;;;5058457;28;20185;-42
2024/03/26 03:05:10;;;;;;;8.27;3.33;;;7.40;1.00;;;;;;5058673;28;20527;-43
2024/03/26 03:07:35;;;;;;;2.83;2.53;;;7.40;1.00;;;;;;5058190;28;20489;-41
2024/03/26 03:10:01;;;;;;;3.50;2.77;;;7.40;1.00;;;;;;5057715;28;20250;-43
2024/03/26 03:12:27;;;;;;;4.60;2.57;;;7.40;1.00;;;;;;5058090;28;20531;-43
2024/03/26 03:14:52;;;;;;;4.27;2.60;;;7.30;1.00;;;;;;5057808;28;20259;-42
2024/03/26 03:17:18;;;;;;;6.03;2.73;;;7.30;1.00;;;;;;5058452;28;20246;-42
2024/03/26 03:19:43;;;;;;;5.03;2.60;;;7.30;1.00;;;;;;5058327;28;20186;-42
2024/03/26 03:22:10;;;;;;;3.43;3.00;;;7.30;1.00;;;;;;5058621;28;20448;-41
2024/03/26 03:24:35;;;;;;;3.87;2.67;;;7.20;1.00;;;;;;5058322;28;20197;-43
2024/03/26 03:27:01;;;;;;;3.50;3.07;;;7.20;1.00;;;;;;5058216;28;20854;-42
2024/03/26 03:29:27;;;;;;;3.20;2.90;;;7.20;1.00;;;;;;5056932;28;20197;-42
2024/03/26 03:31:52;;;;;;;2.80;2.50;;;7.20;1.00;;;;;;5057289;28;20181;-42
2024/03/26 03:34:18;;;;;;;3.80;2.67;;;7.10;1.00;;;;;;5056650;28;20209;-41
2024/03/26 03:36:43;;;;;;;4.30;3.10;;;7.20;1.00;;;;;;5058190;28;20263;-44
2024/03/26 03:39:09;;;;;;;4.17;3.67;;;7.10;1.00;;;;;;5061633;28;20181;-42
2024/03/26 03:41:34;;;;;;;5.37;2.23;;;7.10;1.00;;;;;;5061560;28;20178;-41
2024/03/26 03:44:00;;;;;;;4.43;2.50;;;7.20;1.00;;;;;;5060463;28;20278;-41
2024/03/26 03:46:26;;;;;;;4.40;3.03;;;7.10;1.00;;;;;;5061737;28;20190;-43
2024/03/26 03:48:51;;;;;;;4.13;3.00;;;7.10;1.00;;;;;;5060891;28;20265;-41
2024/03/26 03:51:17;;;;;;;3.80;2.80;;;7.10;1.00;;;;;;5061064;28;20626;-43
2024/03/26 03:53:43;;;;;;;6.63;2.57;;;7.10;1.00;;;;;;5061459;28;20338;-43
2024/03/26 03:56:08;;;;;;;3.57;2.40;;;7.10;1.00;;;;;;5060592;28;20182;-42
2024/03/26 03:58:34;;;;;;;3.70;2.60;;;7.10;3.90;;;;;;5059707;28;20302;-43
2024/03/26 04:00:59;;;;;;;3.93;2.80;;;7.20;3.80;;;;;;5061095;28;20189;-41
2024/03/26 04:03:25;;;;;;;3.30;2.70;;;7.20;7.40;;;;;;5061052;28;20196;-42
2024/03/26 04:05:51;;;;;;;3.93;3.50;;;7.20;11.60;;;;;;5059952;28;20630;-41
2024/03/26 04:08:16;;;;;;;3.30;2.50;;;7.20;13.40;;;;;;5060481;28;20746;-42
2024/03/26 04:10:44;;;;;;;3.43;2.60;;;7.20;18.10;;;;;;5060313;28;20177;-42
2024/03/26 04:13:10;;;;;;;4.70;2.77;;;7.20;21.20;;;;;;5058972;28;20525;-41
2024/03/26 04:15:42;;;;;;;2.90;2.50;;;7.20;21.00;;;;;;5059779;28;20428;-43
2024/03/26 04:18:08;;;;;;;2.80;2.50;;;7.30;22.80;;;;;;5060002;28;20435;-42
2024/03/26 04:20:33;;;;;;;3.10;2.40;;;7.30;24.20;;;;;;5060648;28;20767;-41
2024/03/26 04:22:59;;;;;;;2.60;2.40;;;7.30;28.70;;;;;;5059919;28;20600;-41
2024/03/26 04:25:25;;;;;;;3.20;2.60;;;7.30;27.90;;;;;;5060949;28;20190;-42
2024/03/26 04:27:50;;;;;;;3.43;3.00;;;7.30;32.90;;;;;;5061466;28;20185;-41
2024/03/26 04:30:17;;;;;;;3.87;2.70;;;7.30;38.50;;;;;;5061351;28;20221;-42
2024/03/26 04:32:42;;;;;;;3.23;2.70;;;7.30;41.50;;;;;;5060564;28;20456;-41
2024/03/26 04:35:09;;;;;;;5.63;2.90;;;7.30;46.20;;;;;;5060764;28;20470;-42
2024/03/26 04:37:35;;;;;;;2.70;2.50;;;7.30;51.00;;;;;;5060745;28;20174;-42
2024/03/26 04:40:01;;;;;;;3.53;2.80;;;7.20;53.40;;;;;;5058292;28;20434;-41
2024/03/26 04:42:27;;;;;;;3.40;2.30;;;7.20;50.70;;;;;;5058862;28;20435;-43
2024/03/26 04:44:53;;;;;;;3.30;2.80;;;7.20;53.70;;;;;;5077767;28;20232;-41
2024/03/26 04:47:19;;;;;;;5.67;3.10;;;7.20;56.20;;;;;;5077167;28;20430;-40
2024/03/26 04:49:45;;;;;;;5.90;3.87;;;7.20;55.40;;;;;;5077872;28;20235;-43
2024/03/26 04:52:11;;;;;;;7.00;5.10;;;7.20;47.70;;;;;;5079214;28;20489;-42
2024/03/26 04:54:36;;;;;;;6.63;5.20;;;7.20;44.60;;;;;;5079992;28;20532;-44
2024/03/26 04:57:02;;;;;;;6.37;5.70;;;7.20;41.60;;;;;;5079171;28;20181;-42
2024/03/26 04:59:27;;;;;;;6.40;5.07;;;7.20;43.80;;;;;;5078625;28;20586;-42
2024/03/26 05:01:53;;;;;;;5.60;3.87;;;7.20;44.60;;;;;;5080827;28;20312;-42
2024/03/26 05:04:19;;;;;;;3.87;3.30;;;7.20;46.20;;;;;;5080575;28;20504;-41
2024/03/26 05:06:44;;;;;;;7.50;4.10;;;7.20;46.30;;;;;;5079789;28;20177;-42
2024/03/26 05:09:10;;;;;;;3.80;3.13;;;7.20;47.70;;;;;;5080493;28;20249;-43
2024/03/26 05:11:36;;;;;;;3.30;2.97;;;7.20;50.50;;;;;;5061798;28;20176;-42
2024/03/26 05:14:02;;;;;;;3.70;3.23;;;7.20;50.70;;;;;;5079345;28;20711;-41
2024/03/26 05:16:28;;;;;;;4.03;3.40;;;7.30;45.90;;;;;;5078078;28;20481;-41
2024/03/26 05:18:54;;;;;;;4.40;3.13;;;7.30;45.70;;;;;;5077816;28;20251;-41
2024/03/26 05:21:20;;;;;;;3.33;2.53;;;7.30;42.30;;;;;;5077191;28;20485;-41
2024/03/26 05:23:46;;;;;;;5.30;2.77;;;7.30;38.30;;;;;;5078726;28;20283;-41
2024/03/26 05:26:11;;;;;;;2.93;2.63;;;7.30;30.80;;;;;;5078515;28;20192;-41
2024/03/26 05:28:37;;;;;;;2.93;2.50;;;7.40;29.80;;;;;;5076232;28;20504;-43
2024/03/26 05:31:17;;;;;;;4.07;2.97;;;7.40;26.30;;;;;;5058632;28;20267;-41
2024/03/26 05:33:44;;;;;;;3.20;2.20;;;7.40;23.80;;;;;;5077410;28;20648;-43
2024/03/26 05:36:12;;;;;;;3.00;2.30;;;7.40;19.80;;;;;;5077585;28;20431;-41
2024/03/26 05:38:37;;;;;;;3.20;2.37;;;7.40;13.80;;;;;;5076537;28;20415;-41
2024/03/26 05:41:03;;;;;;;3.97;2.77;;;7.50;9.30;;;;;;5075812;28;20426;-42
2024/03/26 05:43:29;;;;;;;3.70;2.60;;;7.50;5.60;;;;;;5078045;28;20285;-42
2024/03/26 05:45:54;;;;;;;5.10;2.30;;;7.50;2.20;;;;;;5078287;28;20180;-42
2024/03/26 05:48:20;;;;;;;3.10;2.73;;;7.60;1.00;;;;;;5059352;28;20177;-41
2024/03/26 05:50:46;;;;;;;3.50;2.70;;;7.60;1.00;;;;;;5078197;28;20247;-44
2024/03/26 05:53:13;;;;;;;4.00;2.80;;;7.60;1.00;;;;;;5078561;28;20956;-43
2024/03/26 05:55:39;;;;;;;2.93;2.63;;;7.60;1.00;;;;;;5077018;28;20802;-41
2024/03/26 05:58:04;;;;;;;5.07;2.87;;;7.70;1.00;;;;;;5075885;28;20549;-43
2024/03/26 06:00:30;;;;;;;4.50;3.23;;;7.80;1.00;;;;;;5076050;28;20277;-42
2024/03/26 06:02:56;;;;;;;3.80;2.70;;;7.80;1.00;;;;;;5076464;28;20488;-42
2024/03/26 06:05:22;;;;;;;5.27;3.00;;;7.90;1.00;;;;;;5075879;28;20207;-41
2024/03/26 06:07:48;;;;;;;2.73;2.20;;;8.00;1.00;;;;;;5076834;28;20415;-42
2024/03/26 06:10:13;;;;;;;3.40;2.50;;;8.00;1.00;;;;;;5075971;28;20208;-42
2024/03/26 06:12:41;;;;;;;4.50;2.90;;;8.10;1.00;;;;;;5059954;28;20257;-42
2024/03/26 06:15:07;;;;;;;3.50;2.40;;;8.10;1.00;;;;;;5075780;28;20205;-43
2024/03/26 06:17:33;;;;;;;4.20;2.40;;;8.20;1.00;;;;;;5057259;28;20419;-42
2024/03/26 06:19:59;;;;;;;2.70;2.50;;;8.30;1.00;;;;;;5074796;28;20484;-41
2024/03/26 06:22:24;;;;;;;3.17;2.67;;;8.30;1.00;;;;;;5057378;28;20219;-42
2024/03/26 06:24:50;;;;;;;4.00;2.77;;;8.40;1.00;;;;;;5058574;28;20264;-41
2024/03/26 06:27:16;;;;;;;3.77;2.43;;;8.50;1.00;;;;;;5041982;28;20244;-42
2024/03/26 06:29:41;;;;;;;3.93;2.37;;;8.60;1.00;;;;;;5076694;28;20173;-43
2024/03/26 06:32:07;;;;;;;3.90;3.30;;;8.70;1.00;;;;;;5076413;28;20566;-42
2024/03/26 06:34:32;;;;;;;3.27;2.63;;;8.80;1.00;;;;;;5075826;28;20247;-43
2024/03/26 06:36:58;;;;;;;4.03;2.27;;;8.90;1.00;;;;;;5077463;28;20524;-42
2024/03/26 06:39:24;;;;;;;2.87;2.50;;;9.00;1.00;;;;;;5074685;28;20196;-44
2024/03/26 06:41:51;;;;;;;4.10;2.80;;;9.10;1.00;;;;;;5074671;28;20527;-42
2024/03/26 06:44:17;;;;;;;5.13;2.60;;;9.20;1.00;;;;;;5073458;28;20896;-43
2024/03/26 06:46:43;;;;;;;3.73;2.73;;;9.30;1.00;;;;;;5074772;28;20427;-44
2024/03/26 06:49:08;;;;;;;4.43;2.60;;;9.40;1.00;;;;;;5075649;28;20216;-42
2024/03/26 06:51:34;;;;;;;3.40;2.67;;;9.40;1.00;;;;;;5077215;28;20181;-43
2024/03/26 06:53:59;;;;;;;3.50;2.53;;;9.50;1.00;;;;;;5076733;28;20576;-42
2024/03/26 06:56:25;;;;;;;4.73;2.90;;;9.60;1.00;;;;;;5076612;28;20199;-42
2024/03/26 06:58:51;;;;;;;4.40;4.00;;;9.70;1.00;;;;;;5074054;28;20199;-42
2024/03/26 07:01:17;;;;;;;5.93;3.40;;;9.80;1.00;;;;;;5056570;28;20542;-42
2024/03/26 07:03:42;;;;;;;6.83;3.37;;;9.90;1.00;;;;;;5056052;28;20529;-42
2024/03/26 07:06:09;;;;;;;3.13;2.83;;;10.00;1.00;;;;;;5056180;28;20193;-42
2024/03/26 07:08:35;;;;;;;3.07;2.87;;;10.10;1.00;;;;;;5075066;28;20507;-42
2024/03/26 07:11:02;;;;;;;5.20;3.37;;;10.20;1.00;;;;;;5057440;28;20474;-42
2024/03/26 07:13:27;;;;;;;4.83;3.13;;;10.30;1.00;;;;;;5074728;28;20523;-42
2024/03/26 07:15:53;;;;;;;2.33;1.17;;;10.60;1.00;;;;;;5075381;28;20421;-45
2024/03/26 07:18:19;;;;;;;4.17;1.53;;;11.10;99.90;;;;;;5073639;28;20250;-42
2024/03/26 07:20:48;;;;;;;2.50;1.50;;;11.80;99.90;;;;;;5073545;28;20407;-44
2024/03/26 07:23:14;;;;;;;3.40;2.03;;;12.50;1.00;;;;;;5074736;28;20169;-43
2024/03/26 07:25:39;;;;;;;3.27;1.60;;;13.10;1.00;;;;;;5058575;28;20461;-43
2024/03/26 07:28:05;;;;;;;3.73;2.00;;;13.60;1.00;;;;;;5058916;28;20435;-42
2024/03/26 07:30:31;;;;;;;2.50;1.83;;;14.10;1.00;;;;;;5075745;28;20499;-43
2024/03/26 07:32:57;;;;;;;2.10;1.60;;;14.60;1.00;;;;;;5075331;28;20430;-43
2024/03/26 07:35:24;;;;;;;4.20;2.00;;;14.90;99.90;;;;;;5057325;28;20885;-42
2024/03/26 07:37:50;;;;;;;3.30;1.67;;;15.20;99.90;;;;;;5074640;28;20575;-42
2024/03/26 07:40:16;;;;;;;2.70;1.87;;;15.50;76.90;;;;;;5056493;28;20847;-44
2024/03/26 07:42:42;;;;;;;3.60;1.83;;;15.70;16.80;;;;;;5074532;28;20445;-43
2024/03/26 07:45:09;;;;;;;3.90;2.00;;;15.90;1.00;;;;;;5074381;28;20192;-42
2024/03/26 07:47:37;;;;;;;4.40;2.13;;;16.10;1.00;;;;;;5074619;28;20817;-43
2024/03/26 07:50:03;;;;;;;2.90;2.00;;;16.30;1.00;;;;;;5075750;28;20423;-42
2024/03/26 07:52:29;;;;;;;3.40;2.20;;;16.50;1.00;;;;;;5075513;28;20435;-42
2024/03/26 07:54:55;;;;;;;2.90;1.90;;;16.60;1.00;;;;;;5076342;28;20500;-44
2024/03/26 07:57:20;;;;;;;2.97;2.00;;;16.70;1.00;;;;;;5041147;28;20574;-43
2024/03/26 07:59:46;;;;;;;4.07;2.30;;;16.80;1.00;;;;;;5058649;28;20214;-45
2024/03/26 08:02:11;;;;;;;2.70;1.97;;;16.90;1.00;;;;;;5076452;28;20177;-42
2024/03/26 08:04:38;;;;;;;3.13;2.07;;;17.00;1.00;;;;;;5076829;28;20185;-42
2024/03/26 08:07:03;;;;;;;2.27;1.97;;;17.10;1.00;;;;;;5076613;28;20477;-43
2024/03/26 08:09:32;;;;;;;2.50;2.00;;;17.10;1.00;;;;;;5059190;28;20423;-42
2024/03/26 08:11:58;;;;;;;4.93;2.20;;;17.10;1.00;;;;;;5076920;28;20397;-43
2024/03/26 08:14:24;;;;;;;3.47;2.53;;;17.20;1.00;;;;;;5076984;28;20455;-48
2024/03/26 08:16:51;;;;;;;3.57;2.40;;;17.20;1.00;;;;;;5059839;28;20264;-44
2024/03/26 08:19:17;;;;;;;3.00;2.50;;;17.00;1.00;;;;;;5076627;28;20839;-42
2024/03/26 08:21:42;;;;;;;3.10;2.03;;;16.70;1.00;;;;;;5075821;28;20522;-44
2024/03/26 08:24:08;;;;;;;3.30;3.00;;;16.50;1.00;;;;;;5057368;28;20200;-41
2024/03/26 08:26:33;;;;;;;4.07;2.40;;;16.30;1.00;;;;;;5080439;28;20582;-44
2024/03/26 08:29:00;;;;;;;2.97;2.30;;;16.10;1.00;;;;;;5077951;28;20265;-43
2024/03/26 08:31:26;;;;;;;2.47;2.03;;;16.10;1.00;;;;;;5078735;28;20187;-43
2024/03/26 08:33:52;;;;;;;2.07;1.87;;;16.10;1.00;;;;;;5059811;28;20482;-42
2024/03/26 08:36:18;;;;;;;3.23;2.43;;;16.10;1.00;;;;;;5059734;28;20686;-41
2024/03/26 08:38:43;;;;;;;3.23;2.00;;;16.20;1.00;;;;;;5076666;28;20496;-42
2024/03/26 08:41:09;;;;;;;3.50;1.80;;;16.50;1.00;;;;;;5059142;28;20173;-42
2024/03/26 08:43:35;;;;;;;4.03;1.83;;;17.20;1.00;;;;;;5076889;28;20290;-41
2024/03/26 08:46:00;;;;;;;3.27;2.10;;;18.00;1.00;;;;;;5078038;28;20184;-42
2024/03/26 08:48:26;;;;;;;4.10;2.10;;;18.60;1.00;;;;;;5078941;28;20177;-44
2024/03/26 08:50:51;;;;;;;2.33;2.13;;;19.00;1.00;;;;;;5077745;28;20176;-43
2024/03/26 08:53:17;;;;;;;3.33;1.63;;;19.40;1.00;;;;;;5078871;28;20177;-43
2024/03/26 08:55:43;;;;;;;3.90;2.17;;;19.70;1.00;;;;;;5077791;28;20244;-44
2024/03/26 08:58:09;;;;;;;3.00;2.03;;;20.10;1.00;;;;;;5060567;28;20177;-42
2024/03/26 09:00:35;;;;;;;3.13;1.70;;;20.40;1.00;;;;;;5075890;28;20427;-41
2024/03/26 09:03:01;;;;;;;3.17;2.50;;;20.70;1.00;;;;;;5076482;28;20210;-44
2024/03/26 09:05:27;;;;;;;2.23;1.73;;;21.10;1.00;;;;;;5077680;28;20411;-42
2024/03/26 09:07:53;;;;;;;2.33;2.13;;;21.50;1.00;;;;;;5078958;28;20440;-42
2024/03/26 09:10:19;;;;;;;2.50;1.70;;;22.00;1.00;;;;;;5079465;28;20188;-41
2024/03/26 09:12:45;;;;;;;2.50;1.83;;;22.50;1.00;;;;;;5076221;28;20184;-42
2024/03/26 09:15:11;;;;;;;2.37;1.80;;;23.00;1.00;;;;;;5076724;28;20885;-42
2024/03/26 09:17:36;;;;;;;2.00;1.70;;;23.30;1.00;;;;;;5076447;28;20526;-42
2024/03/26 09:20:04;;;;;;;3.27;2.13;;;23.70;1.00;;;;;;5075419;28;20833;-43
2024/03/26 09:22:29;;;;;;;1.80;1.70;;;24.20;1.00;;;;;;5077636;28;20173;-42
2024/03/26 09:24:55;;;;;;;3.80;1.73;;;24.50;1.00;;;;;;5077901;28;20446;-44
2024/03/26 09:27:21;;;;;;;2.70;1.70;;;24.70;1.00;;;;;;5076618;28;20185;-44
2024/03/26 09:29:46;;;;;;;1.90;1.60;;;24.80;1.00;;;;;;5076826;28;20169;-43
2024/03/26 09:32:12;;;;;;;3.53;1.90;;;24.70;1.00;;;;;;5077453;28;20204;-43
2024/03/26 09:34:37;;;;;;;2.20;1.97;;;24.80;1.00;;;;;;5075336;28;20239;-42
2024/03/26 09:37:03;;;;;;;3.50;2.20;;;25.10;1.00;;;;;;5076215;28;20181;-43
2024/03/26 09:39:29;;;;;;;2.87;2.00;;;25.40;1.00;;;;;;5075307;28;20178;-45
2024/03/26 09:41:57;;;;;;;2.80;1.90;;;25.80;1.00;;;;;;5059721;28;20555;-42
2024/03/26 09:44:27;;;;;;;4.07;2.50;;;26.10;1.00;;;;;;5078715;28;20552;-42
2024/03/26 09:46:52;;;;;;;2.87;2.17;;;26.30;1.00;;;;;;5077751;28;20432;-44
2024/03/26 09:49:19;;;;;;;2.40;1.70;;;26.50;1.00;;;;;;5058206;28;20673;-40
2024/03/26 09:51:47;;;;;;;3.20;2.53;;;26.80;1.00;;;;;;5059213;28;20432;-40
2024/03/26 09:54:14;;;;;;;2.33;2.00;;;26.90;1.00;;;;;;5077243;28;20482;-42
2024/03/26 09:56:39;;;;;;;3.00;2.20;;;27.30;1.00;;;;;;5060782;28;20805;-42
2024/03/26 09:59:05;;;;;;;3.03;1.93;;;27.40;1.00;;;;;;5074613;28;20404;-43
2024/03/26 10:01:33;;;;;;;4.07;2.20;;;27.60;1.00;;;;;;5076524;28;20736;-43
2024/03/26 10:03:59;;;;;;;2.40;1.70;;;28.00;1.00;;;;;;5077051;28;20195;-43
2024/03/26 10:06:25;;;;;;;2.80;2.00;;;28.20;1.00;;;;;;5076066;28;20526;-42
2024/03/26 10:08:52;;;;;;;2.27;1.90;;;28.50;1.00;;;;;;5074697;28;20169;-42
2024/03/26 10:11:18;;;;;;;2.23;1.60;;;28.60;1.00;;;;;;5075422;28;20541;-42
2024/03/26 10:13:44;;;;;;;1.97;1.47;;;28.80;1.00;;;;;;5077506;28;20720;-42
2024/03/26 10:16:10;;;;;;;2.97;1.57;;;29.00;1.00;;;;;;5076171;28;20394;-41
2024/03/26 10:18:36;;;;;;;2.10;1.40;;;29.40;1.00;;;;;;5075709;28;20651;-43
2024/03/26 10:21:05;;;;;;;2.33;1.60;;;29.70;1.00;;;;;;5076489;28;20520;-41
2024/03/26 10:23:31;;;;;;;2.60;1.53;;;30.10;1.00;;;;;;5060035;28;20386;-42
2024/03/26 10:26:00;;;;;;;1.43;1.30;;;30.50;1.00;;;;;;5059674;28;20523;-45
2024/03/26 10:28:25;;;;;;;2.60;1.90;;;30.80;1.00;;;;;;5075159;28;20187;-43
2024/03/26 10:30:52;;;;;;;3.27;1.40;;;31.10;1.00;;;;;;5076678;28;20410;-42
2024/03/26 10:33:21;;;;;;;2.87;1.67;;;31.50;1.00;;;;;;5076858;28;20288;-45
2024/03/26 10:35:51;;;;;;;2.60;1.20;;;31.90;1.00;;;;;;5077011;28;20462;-41
2024/03/26 10:38:19;;;;;;;1.93;1.40;;;32.10;1.00;;;;;;5058613;28;20378;-42
2024/03/26 10:41:02;;;;;;;3.60;1.30;;;32.30;1.00;;;;;;5076675;28;20423;-45
2024/03/26 10:43:28;;;;;;;2.80;2.00;;;32.20;1.00;;;;;;5054835;28;20480;-46
2024/03/26 10:45:54;;;;;;;4.20;1.93;;;32.20;1.00;;;;;;5055578;28;20485;-43
2024/03/26 10:48:22;;;;;;;2.70;1.87;;;32.40;1.00;;;;;;5054692;28;20590;-42
2024/03/26 10:50:52;;;;;;;1.60;1.30;;;32.40;1.00;;;;;;5054183;28;20387;-44
2024/03/26 10:53:18;;;;;;;1.90;1.60;;;32.20;1.00;;;;;;5053100;28;20500;-45
2024/03/26 10:55:45;;;;;;;2.87;2.00;;;32.00;1.00;;;;;;5054967;28;20454;-44
2024/03/26 10:58:11;;;;;;;2.93;1.70;;;31.90;1.00;;;;;;5054130;28;20399;-43
2024/03/26 11:00:38;;;;;;;2.10;1.40;;;32.00;1.00;;;;;;5054043;28;20486;-42
2024/03/26 11:03:05;;;;;;;2.93;1.50;;;32.20;1.00;;;;;;5056075;28;20178;-50
2024/03/26 11:05:31;;;;;;;2.50;1.47;;;32.50;1.00;;;;;;5055705;28;20416;-44
2024/03/26 11:07:57;;;;;;;3.40;1.40;;;32.70;1.00;;;;;;5053688;28;20446;-44
2024/03/26 11:10:23;;;;;;;2.70;1.73;;;33.00;1.00;;;;;;5054446;28;20432;-45
2024/03/26 11:12:50;;;;;;;1.83;1.10;;;33.30;1.00;;;;;;5054278;28;20182;-45
2024/03/26 11:15:22;;;;;;;1.87;1.37;;;33.40;1.00;;;;;;5053370;28;20236;-43
2024/03/26 11:17:59;;;;;;;1.97;1.23;;;33.90;1.00;;;;;;5053929;28;20411;-44
2024/03/26 11:20:26;;;;;;;1.47;1.10;;;34.40;1.00;;;;;;5055584;28;20407;-41
2024/03/26 11:23:03;;;;;;;1.87;1.30;;;34.80;1.00;;;;;;5054845;28;20489;-45
2024/03/26 11:25:30;;;;;;;3.00;1.20;;;35.10;1.00;;;;;;5053410;28;20750;-45
2024/03/26 11:27:58;;;;;;;1.67;1.30;;;35.20;1.00;;;;;;5051784;28;20432;-44
2024/03/26 11:30:28;;;;;;;2.57;1.53;;;35.40;1.00;;;;;;5053878;28;20732;-45
2024/03/26 11:32:54;;;;;;;2.20;1.27;;;35.50;1.00;;;;;;5051586;28;20460;-44
2024/03/26 11:35:21;;;;;;;4.10;1.60;;;35.80;1.00;;;;;;5051241;28;20750;-43
2024/03/26 11:37:53;;;;;;;1.67;1.37;;;36.00;1.00;;;;;;5054623;28;20439;-43
2024/03/26 11:40:19;;;;;;;2.27;1.83;;;36.10;1.00;;;;;;5054245;28;20440;-46
2024/03/26 11:42:45;;;;;;;4.20;1.73;;;36.20;1.00;;;;;;5054374;28;20431;-43
2024/03/26 11:45:11;;;;;;;1.70;1.47;;;36.20;1.00;;;;;;5056203;28;20454;-42
2024/03/26 11:47:37;;;;;;;1.57;1.40;;;36.40;1.00;;;;;;5072269;28;20415;-44
2024/03/26 11:50:03;;;;;;;1.80;1.30;;;36.50;1.00;;;;;;5074927;28;20192;-44
2024/03/26 11:52:29;;;;;;;2.17;1.60;;;36.60;1.00;;;;;;5058872;28;20641;-43
2024/03/26 11:54:56;;;;;;;1.77;1.57;;;36.80;1.00;;;;;;5058219;28;20557;-44
2024/03/26 11:57:23;;;;;;;3.30;1.40;;;36.90;1.00;;;;;;5075696;28;20259;-45
2024/03/26 11:59:49;;;;;;;2.00;1.53;;;36.80;1.00;;;;;;5059866;28;20505;-46
2024/03/26 12:02:15;;;;;;;2.33;2.07;;;36.50;1.00;;;;;;5078399;28;20865;-43
2024/03/26 12:04:41;;;;;;;1.90;1.50;;;36.20;1.00;;;;;;5078574;28;20223;-44
2024/03/26 12:07:09;;;;;;;2.23;1.70;;;35.70;1.00;;;;;;5060824;28;20173;-47
2024/03/26 12:09:35;;;;;;;2.20;1.40;;;35.70;1.00;;;;;;5076471;28;20173;-46
2024/03/26 12:12:01;;;;;;;2.50;1.90;;;35.80;1.00;;;;;;5058145;28;20480;-44
2024/03/26 12:14:27;;;;;;;3.13;1.80;;;35.90;1.00;;;;;;5077890;28;20173;-45
2024/03/26 12:16:53;;;;;;;2.00;1.47;;;35.60;1.00;;;;;;5060250;28;20522;-44
2024/03/26 12:19:19;;;;;;;2.70;1.37;;;35.50;1.00;;;;;;5059915;28;20518;-43
2024/03/26 12:21:45;;;;;;;3.93;2.80;;;35.20;1.00;;;;;;5078137;28;20457;-45
2024/03/26 12:24:14;;;;;;;2.93;2.30;;;35.40;1.00;;;;;;5060080;28;20749;-40
2024/03/26 12:26:41;;;;;;;3.23;2.20;;;35.50;1.00;;;;;;5096817;28;20444;-44
2024/03/26 12:29:07;;;;;;;4.17;1.70;;;35.50;1.00;;;;;;5082496;28;20410;-44
2024/03/26 12:31:34;;;;;;;2.67;1.70;;;35.50;1.00;;;;;;5082360;28;20882;-42
2024/03/26 12:34:09;;;;;;;2.33;1.47;;;35.60;1.00;;;;;;5098581;28;20816;-41
2024/03/26 12:36:36;;;;;;;1.93;1.73;;;36.00;1.00;;;;;;5098196;28;20425;-42
2024/03/26 12:39:07;;;;;;;2.57;2.00;;;36.00;1.00;;;;;;5097651;28;20718;-42
2024/03/26 12:41:33;;;;;;;2.50;1.47;;;35.90;1.00;;;;;;5096398;28;20402;-43
2024/03/26 12:43:59;;;;;;;1.70;1.50;;;35.90;1.00;;;;;;5097114;28;20585;-41
2024/03/26 12:46:27;;;;;;;2.00;1.43;;;35.90;1.00;;;;;;5096509;28;20509;-43
2024/03/26 12:48:53;;;;;;;2.70;1.63;;;36.00;1.00;;;;;;5097019;28;20616;-45
2024/03/26 12:51:19;;;;;;;2.57;2.10;;;35.90;1.00;;;;;;5103932;28;20433;-44
2024/03/26 12:53:45;;;;;;;2.50;2.13;;;35.80;1.00;;;;;;5100748;28;20508;-43
2024/03/26 12:56:12;;;;;;;3.23;2.47;;;35.90;1.00;;;;;;5119756;28;20603;-43